Time;durP1;ratioP1;P1;durP2;ratioP2;P2;SDS_P1;SDS_P2;PMS_P1;PMS_P2;Temp;Humidity;BMP_temperature;BMP_pressure;BME280_temperature;BME280_humidity;BME280_pressure;Samples;Min_cycle;Max_cycle;Signal;HPM_P1;HPM_P2
2021/10/24 00:00:22;;;;;;;12.82;6.28;;;;;;;;;;5054119;28;20560;-74
2021/10/24 00:02:53;;;;;;;11.07;6.22;;;;;;;;;;5049049;28;20199;-74
2021/10/24 00:05:19;;;;;;;13.77;6.10;;;;;;;;;;5038403;28;20172;-74
2021/10/24 00:07:45;;;;;;;14.82;6.22;;;;;;;;;;5053695;28;20689;-74
2021/10/24 00:10:17;;;;;;;9.27;5.75;;;;;;;;;;5047005;28;20206;-74
2021/10/24 00:12:47;;;;;;;10.50;6.50;;;;;;;;;;5053493;28;20652;-74
2021/10/24 00:15:13;;;;;;;12.15;6.47;;;;;;;;;;5049507;28;20183;-74
2021/10/24 00:17:39;;;;;;;21.63;6.63;;;;;;;;;;5051636;28;20164;-73
2021/10/24 00:20:11;;;;;;;16.70;6.88;;;;;;;;;;5052445;28;20740;-74
2021/10/24 00:22:37;;;;;;;13.05;6.82;;;;;;;;;;5053274;28;20191;-74
2021/10/24 00:25:04;;;;;;;11.15;5.47;;;;;;;;;;5045861;28;20176;-74
2021/10/24 00:27:30;;;;;;;12.30;6.05;;;;;;;;;;5053440;28;20183;-74
2021/10/24 00:29:56;;;;;;;9.40;6.23;;;;;;;;;;5053272;28;20195;-74
2021/10/24 00:32:22;;;;;;;9.15;5.82;;;;;;;;;;5057065;28;20843;-73
2021/10/24 00:34:48;;;;;;;13.67;6.30;;;;;;;;;;5049515;28;20256;-74
2021/10/24 00:37:14;;;;;;;14.75;5.85;;;;;;;;;;5043585;28;20413;-74
2021/10/24 00:39:40;;;;;;;11.63;6.80;;;;;;;;;;5050784;28;20184;-74
2021/10/24 00:42:11;;;;;;;14.52;6.60;;;;;;;;;;5044999;28;20270;-74
2021/10/24 00:44:37;;;;;;;11.73;6.80;;;;;;;;;;5053101;28;20180;-74
2021/10/24 00:47:06;;;;;;;11.45;6.65;;;4.40;1.00;;;;;;5042939;28;20179;-73
2021/10/24 00:49:36;;;;;;;12.40;7.70;;;;;;;;;;5047127;28;20191;-74
2021/10/24 00:52:02;;;;;;;10.07;6.53;;;;;;;;;;5043234;28;20265;-74
2021/10/24 00:54:30;;;;;;;11.60;6.63;;;4.40;1.00;;;;;;5052639;28;20202;-74
2021/10/24 00:57:00;;;;;;;16.13;6.78;;;;;;;;;;5053074;28;20238;-74
2021/10/24 00:59:29;;;;;;;14.77;6.50;;;;;;;;;;5052941;28;20254;-74
2021/10/24 01:01:55;;;;;;;16.92;7.88;;;;;;;;;;5050450;28;20425;-74
2021/10/24 01:04:23;;;;;;;9.98;6.60;;;4.30;1.00;;;;;;5053176;28;20168;-74
2021/10/24 01:06:51;;;;;;;8.85;6.15;;;;;;;;;;5053997;28;20183;-74
2021/10/24 01:09:18;;;;;;;11.20;7.00;;;;;;;;;;5056728;28;20282;-74
2021/10/24 01:11:45;;;;;;;11.25;6.00;;;;;;;;;;5057067;28;20202;-74
2021/10/24 01:14:11;;;;;;;14.40;7.55;;;4.30;1.00;;;;;;5050911;28;20616;-74
2021/10/24 01:16:39;;;;;;;12.90;6.95;;;4.20;1.00;;;;;;5055746;28;20690;-74
2021/10/24 01:19:07;;;;;;;11.98;7.28;;;4.30;1.00;;;;;;5041600;28;20669;-74
2021/10/24 01:21:36;;;;;;;7.15;5.63;;;;;;;;;;5055803;28;20192;-74
2021/10/24 01:24:02;;;;;;;12.38;6.72;;;;;;;;;;5055627;28;20193;-74
2021/10/24 01:26:29;;;;;;;13.57;7.05;;;;;;;;;;5055616;28;20198;-74
2021/10/24 01:28:55;;;;;;;13.77;6.83;;;4.30;1.00;;;;;;5037719;28;20577;-74
2021/10/24 01:31:23;;;;;;;9.93;5.83;;;;;;;;;;5056757;28;20425;-74
2021/10/24 01:33:53;;;;;;;10.98;6.63;;;;;;;;;;5056560;28;20991;-74
2021/10/24 01:36:23;;;;;;;11.15;7.53;;;;;;;;;;5052820;28;20188;-74
2021/10/24 01:38:53;;;;;;;13.13;7.10;;;;;;;;;;5056714;28;20164;-74
2021/10/24 01:41:23;;;;;;;11.35;6.90;;;4.30;1.00;;;;;;5053845;28;20560;-74
2021/10/24 01:43:53;;;;;;;12.50;6.38;;;;;;;;;;5036427;28;20179;-74
2021/10/24 01:46:29;;;;;;;13.65;6.68;;;;;;;;;;5049870;28;20267;-74
2021/10/24 01:48:55;;;;;;;13.48;6.40;;;;;;;;;;5036986;28;20302;-74
2021/10/24 01:51:22;;;;;;;13.48;6.50;;;4.30;1.00;;;;;;5055655;28;20623;-74
2021/10/24 01:53:48;;;;;;;11.18;6.53;;;;;;;;;;5042993;28;20313;-74
2021/10/24 01:56:15;;;;;;;12.02;7.43;;;4.30;1.00;;;;;;5056067;28;20176;-74
2021/10/24 01:58:41;;;;;;;9.00;6.63;;;;;;;;;;5055960;28;20259;-74
2021/10/24 02:01:11;;;;;;;9.48;6.40;;;;;;;;;;5052917;28;20183;-74
2021/10/24 02:03:38;;;;;;;9.93;6.88;;;;;;;;;;5056220;28;20233;-74
2021/10/24 02:06:04;;;;;;;10.98;6.75;;;4.20;1.00;;;;;;5056009;28;20509;-74
2021/10/24 02:08:31;;;;;;;9.82;5.68;;;;;;;;;;5047295;28;20195;-74
2021/10/24 02:10:57;;;;;;;9.65;5.85;;;;;;;;;;5055796;28;20175;-74
2021/10/24 02:13:29;;;;;;;10.23;6.65;;;;;;;;;;5055642;28;20195;-74
2021/10/24 02:16:06;;;;;;;9.43;6.63;;;;;;;;;;5050751;28;20180;-74
2021/10/24 02:18:32;;;;;;;10.35;6.35;;;;;;;;;;5053857;28;20274;-74
2021/10/24 02:20:58;;;;;;;10.35;6.35;;;;;;;;;;5045699;28;20669;-74
2021/10/24 02:23:24;;;;;;;11.18;5.93;;;;;;;;;;5052384;28;20167;-74
2021/10/24 02:25:50;;;;;;;10.95;6.47;;;;;;;;;;5055848;28;20676;-74
2021/10/24 02:28:17;;;;;;;12.50;6.13;;;;;;;;;;5051115;28;20192;-74
2021/10/24 02:30:43;;;;;;;11.30;5.80;;;;;;;;;;5048085;28;20251;-74
2021/10/24 02:33:09;;;;;;;8.18;5.60;;;;;;;;;;5059643;28;20623;-74
2021/10/24 02:35:37;;;;;;;12.00;6.88;;;;;;;;;;5046009;28;20705;-74
2021/10/24 02:38:05;;;;;;;12.55;6.60;;;;;;;;;;5050831;28;20223;-74
2021/10/24 02:40:31;;;;;;;9.23;6.00;;;;;;;;;;5055475;28;20178;-74
2021/10/24 02:43:16;;;;;;;12.48;5.88;;;;;;;;;;5055069;28;20509;-74
2021/10/24 02:45:42;;;;;;;16.73;6.20;;;;;;;;;;5048660;28;20213;-74
2021/10/24 02:48:09;;;;;;;9.82;6.55;;;;;;;;;;5047136;28;20564;-74
2021/10/24 02:50:35;;;;;;;11.05;6.07;;;;;;;;;;5035874;28;20314;-74
2021/10/24 02:53:01;;;;;;;7.20;5.72;;;;;;;;;;5055055;28;20190;-74
2021/10/24 02:55:29;;;;;;;9.75;6.15;;;;;;;;;;5054920;28;20168;-74
2021/10/24 02:57:56;;;;;;;11.75;6.55;;;;;;;;;;5043977;28;20168;-74
2021/10/24 03:00:22;;;;;;;11.73;6.10;;;;;;;;;;5048515;28;20249;-74
2021/10/24 03:02:49;;;;;;;7.05;5.25;;;;;;;;;;5033915;28;20559;-74
2021/10/24 03:05:15;;;;;;;9.75;6.43;;;;;;;;;;5048965;28;20566;-74
2021/10/24 03:07:41;;;;;;;9.73;6.30;;;;;;;;;;5053363;28;20191;-74
2021/10/24 03:10:17;;;;;;;12.25;6.55;;;;;;;;;;5040624;28;20653;-74
2021/10/24 03:12:43;;;;;;;10.50;6.30;;;;;;;;;;5043766;28;20716;-74
2021/10/24 03:15:10;;;;;;;9.60;5.78;;;;;;;;;;5054549;28;20195;-74
2021/10/24 03:17:36;;;;;;;8.20;5.53;;;;;;;;;;5052114;28;20699;-74
2021/10/24 03:20:02;;;;;;;10.20;6.03;;;;;;;;;;5039442;28;20714;-74
2021/10/24 03:22:30;;;;;;;11.00;6.60;;;;;;;;;;5034758;28;20176;-74
2021/10/24 03:24:56;;;;;;;8.45;5.40;;;;;;;;;;5034519;28;20671;-74
2021/10/24 03:27:22;;;;;;;9.10;6.07;;;;;;;;;;5038098;28;20238;-74
2021/10/24 03:29:48;;;;;;;10.02;6.70;;;;;;;;;;5054109;28;20179;-74
2021/10/24 03:32:14;;;;;;;10.00;5.87;;;;;;;;;;5057472;28;20218;-74
2021/10/24 03:34:40;;;;;;;14.55;6.57;;;;;;;;;;5051564;28;20937;-73
2021/10/24 03:37:06;;;;;;;11.10;5.63;;;;;;;;;;5043360;28;20168;-74
2021/10/24 03:39:36;;;;;;;14.95;6.63;;;;;;;;;;5053884;28;20179;-74
2021/10/24 03:42:02;;;;;;;9.18;6.03;;;;;;;;;;5053910;28;20198;-74
2021/10/24 03:44:28;;;;;;;8.00;5.78;;;;;;;;;;5054026;28;20230;-74
2021/10/24 03:46:54;;;;;;;19.88;6.68;;;;;;;;;;5053956;28;20247;-74
2021/10/24 03:49:20;;;;;;;11.80;6.63;;;;;;;;;;5035666;28;20337;-74
2021/10/24 03:51:46;;;;;;;8.95;5.45;;;;;;;;;;5043212;28;20439;-74
2021/10/24 03:54:23;;;;;;;8.88;5.68;;;;;;;;;;5037684;28;20223;-74
2021/10/24 03:56:49;;;;;;;7.82;5.30;;;;;;;;;;5034345;28;20156;-74
2021/10/24 03:59:17;;;;;;;14.20;5.65;;;;;;;;;;5050049;28;20496;-74
2021/10/24 04:01:43;;;;;;;7.68;5.20;;;;;;;;;;5049013;28;20274;-74
2021/10/24 04:04:09;;;;;;;8.40;5.90;;;;;;;;;;5052859;28;20297;-74
2021/10/24 04:06:42;;;;;;;8.98;5.93;;;;;;;;;;5054215;28;20178;-74
2021/10/24 04:09:08;;;;;;;17.05;5.85;;;;;;;;;;5045783;28;20183;-74
2021/10/24 04:11:34;;;;;;;6.70;5.43;;;;;;;;;;5034016;28;20516;-75
2021/10/24 04:14:00;;;;;;;18.20;5.70;;;;;;;;;;5048241;28;20207;-75
2021/10/24 04:16:41;;;;;;;10.00;5.80;;;;;;;;;;5053524;28;20172;-76
2021/10/24 04:19:07;;;;;;;6.80;5.47;;;;;;;;;;5040639;28;20179;-74
2021/10/24 04:21:33;;;;;;;12.77;6.45;;;;;;;;;;5041680;28;20639;-75
2021/10/24 04:24:18;;;;;;;7.75;5.57;;;;;;;;;;5045869;28;20681;-75
2021/10/24 04:26:47;;;;;;;10.90;5.13;;;;;;;;;;5046978;28;20184;-74
2021/10/24 04:29:17;;;;;;;8.20;5.60;;;;;;;;;;5033816;28;20172;-74
2021/10/24 04:31:43;;;;;;;10.15;5.28;;;;;;;;;;5040944;28;20176;-74
2021/10/24 04:34:10;;;;;;;10.55;5.65;;;;;;;;;;5058058;28;20535;-74
2021/10/24 04:36:36;;;;;;;15.07;7.10;;;;;;;;;;5048509;28;20222;-73
2021/10/24 04:39:02;;;;;;;8.07;5.38;;;;;;;;;;5050665;28;20183;-74
2021/10/24 04:41:29;;;;;;;12.85;6.30;;;;;;;;;;5054986;28;20230;-74
2021/10/24 04:43:59;;;;;;;7.95;5.57;;;;;;;;;;5054957;28;20179;-74
2021/10/24 04:46:25;;;;;;;10.20;5.25;;;;;;;;;;5050818;28;20253;-74
2021/10/24 04:48:51;;;;;;;7.82;5.60;;;;;;;;;;5048280;28;20204;-73
2021/10/24 04:51:17;;;;;;;9.25;5.88;;;;;;;;;;5053774;28;20208;-74
2021/10/24 04:53:44;;;;;;;8.88;5.28;;;;;;;;;;5051471;28;20575;-74
2021/10/24 04:56:10;;;;;;;10.80;6.07;;;;;;;;;;5046742;28;20206;-74
2021/10/24 04:58:37;;;;;;;9.93;6.10;;;;;;;;;;5048004;28;20180;-74
2021/10/24 05:01:05;;;;;;;11.88;6.00;;;;;;;;;;5038776;28;20635;-74
2021/10/24 05:03:35;;;;;;;8.48;6.05;;;;;;;;;;5048474;28;20233;-74
2021/10/24 05:06:02;;;;;;;10.40;6.43;;;;;;;;;;5059908;28;20278;-74
2021/10/24 05:08:28;;;;;;;15.10;7.32;;;;;;;;;;5059811;28;20183;-74
2021/10/24 05:10:54;;;;;;;7.83;5.50;;;;;;;;;;5053545;28;20738;-74
2021/10/24 05:13:20;;;;;;;7.80;5.78;;;;;;;;;;5059713;28;20456;-74
2021/10/24 05:15:46;;;;;;;9.45;6.53;;;;;;;;;;5059601;28;20191;-74
2021/10/24 05:18:13;;;;;;;10.50;6.25;;;;;;;;;;5059866;28;20539;-74
2021/10/24 05:20:41;;;;;;;12.05;6.00;;;;;;;;;;5055588;28;20226;-74
2021/10/24 05:23:08;;;;;;;9.52;5.82;;;;;;;;;;5056425;28;20187;-74
2021/10/24 05:25:34;;;;;;;11.60;5.80;;;;;;;;;;5059429;28;20186;-74
2021/10/24 05:28:00;;;;;;;8.68;6.10;;;;;;;;;;5046291;28;20216;-74
2021/10/24 05:30:26;;;;;;;10.13;6.13;;;;;;;;;;5043590;28;20247;-74
2021/10/24 05:32:53;;;;;;;7.38;5.30;;;;;;;;;;5066955;28;20174;-74
2021/10/24 05:35:23;;;;;;;12.68;6.13;;;3.00;1.00;;;;;;5067211;28;20249;-74
2021/10/24 05:37:49;;;;;;;6.78;5.53;;;2.90;1.00;;;;;;5057179;28;20171;-74
2021/10/24 05:40:16;;;;;;;15.20;5.80;;;;;;;;;;5044546;28;20234;-74
2021/10/24 05:42:42;;;;;;;7.88;5.63;;;;;;;;;;5038856;28;20172;-74
2021/10/24 05:45:09;;;;;;;9.43;6.25;;;2.90;1.00;;;;;;5047525;28;20267;-74
2021/10/24 05:47:34;;;;;;;13.30;6.57;;;2.90;1.00;;;;;;5045240;28;20203;-74
2021/10/24 05:50:02;;;;;;;6.10;5.20;;;2.80;1.00;;;;;;5039707;28;20235;-74
2021/10/24 05:52:28;;;;;;;11.13;6.68;;;;;;;;;;5057209;28;20646;-74
2021/10/24 05:55:06;;;;;;;9.85;5.55;;;;;;;;;;5056189;28;20579;-74
2021/10/24 05:57:35;;;;;;;19.17;5.78;;;;;;;;;;5056206;28;20168;-74
2021/10/24 06:00:02;;;;;;;9.80;5.68;;;;;;;;;;5056440;28;20602;-74
2021/10/24 06:02:28;;;;;;;8.35;6.20;;;;;;;;;;5042598;28;20559;-74
2021/10/24 06:04:57;;;;;;;8.70;5.40;;;;;;;;;;5055857;28;20646;-74
2021/10/24 06:07:23;;;;;;;13.65;5.97;;;;;;;;;;5043227;28;20177;-74
2021/10/24 06:15:00;;;;;;;10.13;5.50;;;2.60;1.00;;;;;;5044927;28;20231;-74
2021/10/24 06:17:26;;;;;;;9.95;6.07;;;;;;;;;;5040145;28;20176;-74
2021/10/24 06:19:53;;;;;;;10.32;5.90;;;;;;;;;;5045014;28;20186;-74
2021/10/24 06:22:19;;;;;;;11.35;6.00;;;;;;;;;;5042775;28;20180;-74
2021/10/24 06:24:45;;;;;;;10.10;5.97;;;;;;;;;;5055544;28;20171;-74
2021/10/24 06:27:11;;;;;;;13.32;6.70;;;;;;;;;;5055603;28;20199;-74
2021/10/24 06:29:37;;;;;;;9.35;5.68;;;;;;;;;;5055636;28;20176;-74
2021/10/24 06:32:04;;;;;;;7.13;5.55;;;;;;;;;;5058927;28;20178;-74
2021/10/24 06:34:30;;;;;;;10.70;6.20;;;;;;;;;;5053678;28;20204;-74
2021/10/24 06:36:57;;;;;;;7.47;5.18;;;;;;;;;;5047893;28;20179;-73
2021/10/24 06:39:23;;;;;;;13.63;6.55;;;;;;;;;;5034574;28;20271;-74
2021/10/24 06:42:05;;;;;;;12.70;6.47;;;;;;;;;;5043142;28;20180;-74
2021/10/24 06:44:31;;;;;;;11.48;6.30;;;;;;;;;;5053757;28;20189;-74
2021/10/24 06:46:57;;;;;;;17.13;6.00;;;;;;;;;;5050141;28;20263;-74
2021/10/24 06:49:24;;;;;;;8.80;5.55;;;;;;;;;;5051887;28;20197;-74
2021/10/24 06:51:50;;;;;;;9.80;5.75;;;;;;;;;;5045328;28;20651;-74
2021/10/24 06:54:17;;;;;;;11.68;5.88;;;3.10;1.00;;;;;;5051872;28;20686;-75
2021/10/24 06:56:48;;;;;;;11.32;6.47;;;3.10;1.00;;;;;;5046572;28;20186;-75
2021/10/24 06:59:15;;;;;;;10.38;6.15;;;3.10;1.00;;;;;;5035234;28;20203;-74
2021/10/24 07:01:41;;;;;;;10.13;6.30;;;;;;;;;;5045511;28;20180;-74
2021/10/24 07:04:11;;;;;;;9.55;5.30;;;3.20;1.00;;;;;;5041194;28;20177;-73
2021/10/24 07:06:41;;;;;;;7.40;4.95;;;3.30;1.00;;;;;;5055015;28;20219;-74
2021/10/24 07:09:11;;;;;;;9.32;5.93;;;3.40;1.00;;;;;;5038193;28;20667;-74
2021/10/24 07:11:37;;;;;;;9.23;5.30;;;3.40;1.00;;;;;;5045717;28;20230;-74
2021/10/24 07:14:05;;;;;;;9.23;5.70;;;3.50;1.00;;;;;;5053436;28;20195;-74
2021/10/24 07:16:30;;;;;;;9.18;5.68;;;3.60;1.00;;;;;;5047930;28;20168;-74
2021/10/24 07:18:59;;;;;;;10.67;6.33;;;3.60;1.00;;;;;;5053134;28;20708;-74
2021/10/24 07:21:25;;;;;;;15.93;6.43;;;3.70;1.00;;;;;;5051403;28;20172;-74
2021/10/24 07:23:51;;;;;;;10.83;5.93;;;;;;;;;;5039381;28;20176;-74
2021/10/24 07:26:17;;;;;;;6.15;5.55;;;3.80;1.00;;;;;;5054444;28;20432;-74
2021/10/24 07:28:43;;;;;;;12.90;6.40;;;3.90;1.00;;;;;;5052345;28;20179;-74
2021/10/24 07:31:09;;;;;;;12.90;6.20;;;4.00;1.00;;;;;;5044446;28;20226;-74
2021/10/24 07:33:35;;;;;;;17.83;6.73;;;;;;;;;;5043934;28;20199;-74
2021/10/24 07:36:01;;;;;;;7.10;6.00;;;4.10;1.00;;;;;;5054238;28;20164;-73
2021/10/24 07:38:27;;;;;;;9.57;6.23;;;4.20;1.00;;;;;;5037885;28;20184;-74
2021/10/24 07:40:52;;;;;;;10.37;6.83;;;4.40;1.00;;;;;;5052262;28;20176;-76
2021/10/24 07:43:22;;;;;;;9.30;6.93;;;4.40;1.00;;;;;;5048498;28;20192;-73
2021/10/24 07:45:49;;;;;;;8.52;5.28;;;;;;;;;;5047060;28;20175;-73
2021/10/24 07:48:15;;;;;;;11.07;6.00;;;4.60;1.00;;;;;;5053529;28;20265;-74
2021/10/24 07:50:47;;;;;;;11.57;6.32;;;4.70;1.00;;;;;;5054065;28;20179;-73
2021/10/24 07:53:14;;;;;;;7.70;5.88;;;4.80;1.00;;;;;;5047760;28;20156;-73
2021/10/24 07:55:40;;;;;;;10.02;5.90;;;4.90;1.00;;;;;;5052967;28;20179;-73
2021/10/24 07:58:05;;;;;;;9.57;5.18;;;5.00;1.00;;;;;;5043399;28;20256;-73
2021/10/24 08:00:35;;;;;;;15.70;5.73;;;5.10;1.00;;;;;;5053800;28;20243;-73
2021/10/24 08:03:06;;;;;;;8.37;5.90;;;5.20;1.00;;;;;;5045747;28;20180;-73
2021/10/24 08:05:37;;;;;;;9.90;6.40;;;5.40;1.00;;;;;;5048971;28;20422;-73
2021/10/24 08:08:03;;;;;;;7.77;5.17;;;5.50;1.00;;;;;;5044914;28;20411;-74
2021/10/24 08:10:29;;;;;;;10.90;5.47;;;;;;;;;;5049560;28;20920;-73
2021/10/24 08:12:59;;;;;;;9.43;5.40;;;5.70;1.00;;;;;;5053812;28;20457;-73
2021/10/24 08:15:26;;;;;;;12.30;5.80;;;;;;;;;;5051541;28;20457;-73
2021/10/24 08:17:53;;;;;;;12.00;5.83;;;5.90;1.00;;;;;;5043170;28;20410;-74
2021/10/24 08:20:19;;;;;;;7.90;5.77;;;;;;;;;;5052290;28;20450;-74
2021/10/24 08:22:53;;;;;;;7.10;4.63;;;;;;;;;;5053577;28;20414;-74
2021/10/24 08:25:20;;;;;;;14.03;5.90;;;6.10;1.00;;;;;;5053807;28;20500;-74
2021/10/24 08:27:54;;;;;;;17.33;5.30;;;6.20;1.00;;;;;;5053452;28;20442;-74
2021/10/24 08:30:20;;;;;;;11.10;5.07;;;6.20;1.00;;;;;;5053601;28;20504;-74
2021/10/24 08:32:47;;;;;;;10.07;5.50;;;;;;;;;;5064094;28;20576;-75
2021/10/24 08:35:13;;;;;;;10.30;5.50;;;6.40;1.00;;;;;;5053611;28;20446;-74
2021/10/24 08:37:39;;;;;;;8.27;5.23;;;;;;;;;;5049877;28;20938;-75
2021/10/24 08:40:11;;;;;;;7.67;4.80;;;6.60;1.00;;;;;;5053551;28;20485;-75
2021/10/24 08:42:43;;;;;;;9.27;5.10;;;6.70;1.00;;;;;;5053437;28;20460;-76
2021/10/24 08:45:14;;;;;;;9.07;5.07;;;6.80;1.00;;;;;;5043777;28;20768;-75
2021/10/24 08:47:41;;;;;;;13.13;5.30;;;;;;;;;;5042196;28;20466;-75
2021/10/24 08:50:08;;;;;;;7.20;4.50;;;;;;;;;;5042858;28;20406;-76
2021/10/24 08:52:39;;;;;;;7.13;5.10;;;7.10;1.00;;;;;;5051897;28;20452;-74
2021/10/24 08:55:05;;;;;;;14.33;5.17;;;;;;;;;;5042840;28;20425;-74
2021/10/24 08:57:31;;;;;;;31.27;5.80;;;;;;;;;;5052705;28;20924;-74
2021/10/24 09:00:02;;;;;;;9.30;5.97;;;7.30;1.00;;;;;;5052790;28;20391;-76
2021/10/24 09:02:46;;;;;;;9.50;5.17;;;;;;;;;;5053428;28;20853;-76
2021/10/24 09:05:26;;;;;;;13.13;6.40;;;;;;;;;;5045321;28;20481;-75
2021/10/24 09:07:55;;;;;;;17.50;5.73;;;7.60;1.00;;;;;;5047688;28;20472;-74
2021/10/24 09:10:56;;;;;;;11.97;5.77;;;7.80;1.00;;;;;;5037717;28;20414;-73
2021/10/24 09:13:28;;;;;;;10.17;4.87;;;;;;;;;;4991468;28;20424;-74
2021/10/24 09:16:05;;;;;;;8.63;4.93;;;7.90;1.00;;;;;;4991091;28;20425;-73
2021/10/24 09:18:34;;;;;;;13.20;3.87;;;8.00;1.00;;;;;;4991182;28;20443;-74
2021/10/24 09:21:15;;;;;;;12.07;4.80;;;;;;;;;;4991675;28;20893;-74
2021/10/24 09:23:50;;;;;;;3.90;3.50;;;;;;;;;;4991835;28;20487;-73
2021/10/24 09:26:34;;;;;;;4.60;3.30;;;;;;;;;;4989953;28;20496;-74
2021/10/24 09:29:00;;;;;;;6.73;3.80;;;;;;;;;;4990805;28;20460;-73
2021/10/24 09:31:36;;;;;;;5.90;3.80;;;;;;;;;;4995313;28;20492;-73
2021/10/24 09:34:25;;;;;;;8.43;4.23;;;8.40;1.00;;;;;;4994931;28;20487;-74
2021/10/24 09:37:01;;;;;;;6.67;3.20;;;8.50;1.00;;;;;;4973404;28;20511;-74
2021/10/24 09:39:34;;;;;;;7.90;3.60;;;8.60;1.00;;;;;;4995526;28;20448;-76
2021/10/24 09:42:19;;;;;;;9.30;4.07;;;8.60;1.00;;;;;;4975261;28;20433;-76
2021/10/24 09:45:12;;;;;;;6.83;3.40;;;8.80;1.00;;;;;;4979264;28;20456;-76
2021/10/24 09:47:43;;;;;;;5.43;2.67;;;8.90;1.00;;;;;;4985564;28;20813;-76
2021/10/24 09:50:27;;;;;;;7.33;3.47;;;9.00;1.00;;;;;;5054277;28;20478;-76
2021/10/24 09:52:55;;;;;;;8.20;3.60;;;;;;;;;;5055544;28;20509;-73
2021/10/24 09:55:21;;;;;;;5.33;2.90;;;;;;;;;;5056076;28;20414;-74
2021/10/24 09:57:47;;;;;;;3.13;2.43;;;;;;;;;;5055755;28;20433;-73
2021/10/24 10:00:17;;;;;;;7.57;2.77;;;;;;;;;;5050869;28;20417;-74
2021/10/24 10:02:43;;;;;;;8.37;3.10;;;;;;;;;;5053582;28;20494;-73
2021/10/24 10:05:10;;;;;;;5.90;3.33;;;;;;;;;;5055710;28;20469;-73
2021/10/24 10:07:36;;;;;;;11.40;3.60;;;;;;;;;;5056827;28;20459;-75
2021/10/24 10:10:05;;;;;;;4.87;3.33;;;;;;;;;;5049979;28;20941;-76
2021/10/24 10:12:55;;;;;;;3.90;3.17;;;10.00;1.00;;;;;;5036335;28;20402;-77
2021/10/24 10:15:39;;;;;;;3.73;2.70;;;10.00;1.00;;;;;;5044564;28;20427;-76
2021/10/24 10:18:05;;;;;;;5.70;3.20;;;10.00;1.00;;;;;;5044655;28;20496;-77
2021/10/24 10:20:35;;;;;;;7.90;3.03;;;10.00;1.00;;;;;;5047496;28;20533;-77
2021/10/24 10:23:09;;;;;;;6.43;3.40;;;10.10;1.00;;;;;;5048181;28;20453;-73
2021/10/24 10:25:37;;;;;;;6.33;3.33;;;10.20;1.00;;;;;;5049247;28;20475;-73
2021/10/24 10:28:05;;;;;;;3.20;2.90;;;;;;;;;;5048526;28;20394;-74
2021/10/24 10:30:34;;;;;;;10.23;4.27;;;;;;;;;;5047758;28;20423;-73
2021/10/24 10:33:01;;;;;;;6.67;3.40;;;;;;;;;;5050786;28;20402;-73
2021/10/24 10:35:28;;;;;;;6.70;3.57;;;10.50;1.00;;;;;;5054364;28;20416;-74
2021/10/24 10:38:01;;;;;;;3.87;3.10;;;;;;;;;;5055403;28;20434;-76
2021/10/24 10:40:33;;;;;;;6.97;3.40;;;10.70;1.00;;;;;;5046559;28;20434;-73
2021/10/24 10:43:02;;;;;;;6.70;2.90;;;10.70;1.00;;;;;;5040346;28;20422;-73
2021/10/24 10:45:34;;;;;;;7.30;2.80;;;10.80;1.00;;;;;;5062401;28;20947;-73
2021/10/24 10:48:09;;;;;;;8.27;3.77;;;11.00;1.00;;;;;;5056007;28;20446;-73
2021/10/24 10:50:41;;;;;;;3.77;2.73;;;11.00;1.00;;;;;;5053055;28;20445;-73
2021/10/24 10:53:38;;;;;;;3.60;2.90;;;11.10;1.00;;;;;;5055433;28;20446;-72
2021/10/24 10:56:05;;;;;;;6.33;3.00;;;;;;;;;;5055136;28;20524;-77
2021/10/24 10:58:48;;;;;;;4.20;2.90;;;11.10;1.00;;;;;;5055761;28;20416;-77
2021/10/24 11:01:37;;;;;;;8.93;2.50;;;11.30;1.00;;;;;;5038499;28;20423;-76
2021/10/24 11:04:23;;;;;;;4.70;2.50;;;11.50;1.00;;;;;;5049009;28;20531;-77
2021/10/24 11:06:56;;;;;;;3.70;2.30;;;11.60;1.00;;;;;;5036175;28;20419;-78
2021/10/24 11:09:43;;;;;;;6.83;2.67;;;11.70;1.00;;;;;;5035173;28;20460;-74
2021/10/24 11:12:30;;;;;;;7.60;2.80;;;11.70;1.00;;;;;;5051003;28;20959;-74
2021/10/24 11:15:27;;;;;;;5.20;2.80;;;11.80;1.00;;;;;;5054841;28;20414;-74
2021/10/24 11:17:54;;;;;;;7.10;2.17;;;11.90;1.00;;;;;;4993093;28;20786;-73
2021/10/24 11:20:29;;;;;;;4.10;2.70;;;12.00;1.00;;;;;;4993110;28;20413;-73
2021/10/24 11:22:56;;;;;;;3.20;2.27;;;;;;;;;;4992789;28;20431;-73
2021/10/24 11:25:34;;;;;;;3.40;2.10;;;12.00;1.00;;;;;;4977417;28;20556;-77
2021/10/24 11:28:20;;;;;;;3.20;2.00;;;12.30;1.00;;;;;;4993581;28;20429;-76
2021/10/24 11:31:07;;;;;;;5.23;2.70;;;;;;;;;;4993552;28;20440;-76
2021/10/24 11:33:51;;;;;;;3.67;2.20;;;12.40;1.00;;;;;;4992998;28;20507;-80
2021/10/24 11:36:44;;;;;;;3.37;2.27;;;12.50;1.00;;;;;;4993036;28;20427;-76
2021/10/24 11:39:24;;;;;;;3.67;2.60;;;12.50;1.00;;;;;;4993345;28;21002;-77
2021/10/24 11:42:09;;;;;;;11.70;2.97;;;;;;;;;;4980921;28;20432;-76
2021/10/24 11:44:35;;;;;;;4.00;2.47;;;;;;;;;;4992243;28;20464;-78
2021/10/24 11:47:09;;;;;;;6.20;1.93;;;;;;;;;;4992772;28;20875;-77
2021/10/24 11:49:55;;;;;;;5.90;2.53;;;;;;;;;;4993001;28;20818;-77
2021/10/24 11:52:35;;;;;;;8.70;1.93;;;;;;;;;;4989641;28;21076;-74
2021/10/24 11:55:10;;;;;;;6.83;2.50;;;;;;;;;;5028422;28;20427;-73
2021/10/24 12:00:21;;;;;;;7.13;3.03;;;;;;;;;;5051523;28;20887;-73
2021/10/24 12:03:14;;;;;;;4.40;2.27;;;;;;;;;;5048576;28;20522;-73
2021/10/24 12:05:42;;;;;;;4.47;2.50;;;13.30;1.00;;;;;;5042020;28;20401;-73
2021/10/24 12:08:08;;;;;;;3.43;2.07;;;;;;;;;;5051118;28;20526;-73
2021/10/24 12:10:41;;;;;;;9.10;2.50;;;;;;;;;;5034338;28;20381;-78
2021/10/24 12:13:32;;;;;;;4.10;2.40;;;13.40;1.00;;;;;;5047127;28;20403;-78
2021/10/24 12:16:17;;;;;;;4.90;2.27;;;;;;;;;;4998674;28;20498;-78
2021/10/24 12:19:28;;;;;;;4.53;2.47;;;13.60;1.00;;;;;;5012055;28;20815;-79
2021/10/24 12:25:51;;;;;;;2.13;2.00;;;13.60;1.00;;;;;;4953803;29;21050;-78
2021/10/24 12:28:45;;;;;;;2.57;1.90;;;;;;;;;;4896738;29;20900;-78
2021/10/24 12:31:34;;;;;;;4.20;2.17;;;13.70;1.00;;;;;;4877889;29;20439;-78
2021/10/24 12:34:12;;;;;;;2.30;1.77;;;13.80;1.00;;;;;;4893494;29;20408;-78
2021/10/24 12:36:53;;;;;;;12.00;2.50;;;;;;;;;;4905807;29;20490;-78
2021/10/24 12:39:41;;;;;;;3.23;1.90;;;14.00;1.00;;;;;;4896694;29;20767;-78
2021/10/24 12:42:26;;;;;;;3.63;1.90;;;14.10;1.00;;;;;;4896241;29;20925;-78
2021/10/24 12:45:17;;;;;;;2.70;2.10;;;14.00;1.00;;;;;;4902519;29;20458;-78
2021/10/24 12:47:58;;;;;;;5.87;2.00;;;14.00;1.00;;;;;;4905196;29;20832;-78
2021/10/24 12:50:34;;;;;;;9.50;2.10;;;14.00;1.00;;;;;;4896611;29;20448;-77
2021/10/24 12:53:41;;;;;;;3.20;2.27;;;14.10;1.00;;;;;;4915817;29;20402;-77
2021/10/24 12:56:08;;;;;;;2.50;1.57;;;;;;;;;;4973431;28;20582;-77
2021/10/24 12:58:35;;;;;;;2.73;1.93;;;;;;;;;;4992023;28;20421;-78
2021/10/24 13:01:37;;;;;;;5.60;1.83;;;14.00;1.00;;;;;;4992163;28;20976;-79
2021/10/24 13:04:05;;;;;;;1.90;1.73;;;;;;;;;;4955634;28;20444;-78
2021/10/24 13:06:41;;;;;;;4.33;2.10;;;;;;;;;;4989263;28;20488;-78
2021/10/24 13:09:12;;;;;;;4.63;2.07;;;;;;;;;;4986166;28;20403;-78
2021/10/24 13:11:38;;;;;;;4.00;2.60;;;;;;;;;;4995031;28;20419;-78
2021/10/24 13:14:04;;;;;;;5.83;2.63;;;;;;;;;;4984374;28;20806;-78
2021/10/24 13:16:35;;;;;;;2.30;1.60;;;;;;;;;;4993183;28;20820;-78
2021/10/24 13:19:05;;;;;;;3.20;2.43;;;;;;;;;;4984253;28;20750;-78
2021/10/24 13:24:24;;;;;;;4.70;1.93;;;;;;;;;;4995100;28;20489;-77
2021/10/24 13:26:50;;;;;;;5.07;2.17;;;;;;;;;;4994242;28;20466;-74
2021/10/24 13:29:17;;;;;;;6.23;3.13;;;;;;;;;;4983370;28;20406;-73
2021/10/24 13:31:43;;;;;;;3.43;1.80;;;;;;;;;;4995250;28;20404;-74
2021/10/24 13:34:09;;;;;;;3.97;2.07;;;;;;;;;;4995162;28;20976;-74
2021/10/24 13:36:36;;;;;;;7.20;2.10;;;;;;;;;;4992656;28;20512;-74
2021/10/24 13:39:11;;;;;;;2.23;1.77;;;;;;;;;;5047821;28;20464;-74
2021/10/24 13:41:38;;;;;;;2.83;1.63;;;;;;;;;;5044621;28;20426;-74
2021/10/24 13:44:04;;;;;;;9.10;2.60;;;;;;;;;;5040745;28;21017;-73
2021/10/24 13:46:30;;;;;;;3.30;2.00;;;;;;;;;;5054565;28;20418;-74
2021/10/24 13:48:57;;;;;;;5.67;1.90;;;;;;;;;;5055541;28;20437;-74
2021/10/24 13:51:28;;;;;;;4.77;2.23;;;;;;;;;;5055065;28;20830;-74
2021/10/24 13:53:54;;;;;;;3.40;1.73;;;;;;;;;;5042037;28;20424;-74
2021/10/24 13:56:20;;;;;;;3.00;1.47;;;;;;;;;;5056753;28;20454;-77
2021/10/24 13:58:47;;;;;;;1.80;1.57;;;;;;;;;;5054515;28;20813;-78
2021/10/24 14:01:17;;;;;;;3.10;1.73;;;;;;;;;;5056310;28;20414;-78
2021/10/24 14:03:58;;;;;;;3.33;1.93;;;;;;;;;;5046234;28;20516;-78
2021/10/24 14:06:59;;;;;;;22.27;2.53;;;14.90;1.00;;;;;;5050785;28;20521;-77
2021/10/24 14:09:30;;;;;;;5.53;1.97;;;;;;;;;;5041362;28;20425;-78
2021/10/24 14:11:57;;;;;;;2.30;1.70;;;;;;;;;;5041151;28;20910;-74
2021/10/24 14:14:23;;;;;;;3.83;2.23;;;;;;;;;;5041437;28;20423;-75
2021/10/24 14:16:59;;;;;;;4.83;1.80;;;;;;;;;;5046083;28;20955;-75
2021/10/24 14:19:25;;;;;;;16.00;2.87;;;;;;;;;;5050140;28;20434;-78
2021/10/24 14:21:51;;;;;;;4.33;1.53;;;;;;;;;;5055781;28;20394;-77
2021/10/24 14:24:23;;;;;;;5.60;2.10;;;;;;;;;;5054474;28;20963;-77
2021/10/24 14:26:50;;;;;;;9.40;2.27;;;;;;;;;;5037579;28;20983;-75
2021/10/24 14:29:17;;;;;;;8.63;1.87;;;;;;;;;;5046831;28;20442;-76
2021/10/24 14:31:43;;;;;;;4.57;2.00;;;;;;;;;;5035155;28;20437;-74
2021/10/24 14:34:10;;;;;;;2.90;1.60;;;;;;;;;;5048800;28;20376;-73
2021/10/24 14:36:37;;;;;;;13.87;2.80;;;14.90;1.00;;;;;;5042678;28;20495;-73